createdAt,value
2022-08-26T00:03:17.948Z,100635.44
2022-08-26T00:06:42.465Z,100630.28
2022-08-26T00:10:08.926Z,100625.78
2022-08-26T00:13:31.930Z,100606.56
2022-08-26T00:16:55.185Z,100608.78
2022-08-26T00:20:19.888Z,100602.94
2022-08-26T00:23:44.933Z,100608.38
2022-08-26T00:27:08.966Z,100596.31
2022-08-26T00:30:33.913Z,100599.91
2022-08-26T00:33:57.966Z,100589.47
2022-08-26T00:37:20.914Z,100583.63
2022-08-26T00:40:48.917Z,100585.13
2022-08-26T00:44:10.914Z,100580.88
2022-08-26T00:47:53.935Z,100578.50
2022-08-26T00:51:12.494Z,100581.53
2022-08-26T00:54:29.935Z,100575.53
2022-08-26T00:57:52.907Z,100572.50
2022-08-26T01:01:16.011Z,100560.28
2022-08-26T01:04:39.004Z,100567.38
2022-08-26T01:08:03.687Z,100554.56
2022-08-26T01:11:26.992Z,100555.44
2022-08-26T01:14:50.994Z,100553.94
2022-08-26T01:18:13.986Z,100570.41
2022-08-26T01:21:44.064Z,100558.72
2022-08-26T01:25:07.972Z,100563.88
2022-08-26T01:28:42.087Z,100555.44
2022-08-26T01:32:05.218Z,100551.09
2022-08-26T01:35:29.037Z,100547.94
2022-08-26T01:38:50.974Z,100541.47
2022-08-26T01:42:13.009Z,100539.38
2022-08-26T01:45:39.010Z,100527.47
2022-08-26T01:49:03.043Z,100531.88
2022-08-26T01:52:22.758Z,100522.69
2022-08-26T01:55:40.086Z,100522.41
2022-08-26T01:59:03.939Z,100524.41
2022-08-26T02:02:27.023Z,100527.78
2022-08-26T02:05:51.396Z,100527.91
2022-08-26T02:09:15.116Z,100531.97
2022-08-26T02:12:36.981Z,100535.09
2022-08-26T02:15:59.026Z,100542.97
2022-08-26T02:19:21.978Z,100542.16
2022-08-26T02:22:46.028Z,100533.63
2022-08-26T02:26:10.970Z,100532.28
2022-08-26T02:29:40.048Z,100539.00
2022-08-26T02:33:03.016Z,100541.22
2022-08-26T02:36:25.026Z,100546.88
2022-08-26T02:39:51.067Z,100536.88
2022-08-26T02:43:14.032Z,100542.09
2022-08-26T02:46:38.077Z,100542.91
2022-08-26T02:50:01.998Z,100540.25
2022-08-26T02:53:25.363Z,100540.06
2022-08-26T02:56:50.039Z,100544.75
2022-08-26T03:00:12.012Z,100540.97
2022-08-26T03:03:33.988Z,100535.28
2022-08-26T03:06:57.962Z,100535.03
2022-08-26T03:10:20.996Z,100535.81
2022-08-26T03:13:44.029Z,100536.59
2022-08-26T03:17:07.034Z,100528.47
2022-08-26T03:20:31.967Z,100521.16
2022-08-26T03:23:54.998Z,100523.28
2022-08-26T03:27:20.981Z,100531.31
2022-08-26T03:30:49.993Z,100531.41
2022-08-26T03:34:13.015Z,100531.41
2022-08-26T03:37:35.988Z,100530.59
2022-08-26T03:41:00.018Z,100525.78
2022-08-26T03:44:24.000Z,100536.28
2022-08-26T03:47:48.981Z,100531.38
2022-08-26T03:51:12.016Z,100529.66
2022-08-26T03:54:28.611Z,100529.75
2022-08-26T03:57:46.067Z,100528.75
2022-08-26T04:01:09.022Z,100541.19
2022-08-26T04:04:31.996Z,100542.00
2022-08-26T04:07:56.094Z,100535.03
2022-08-26T04:11:19.043Z,100542.78
2022-08-26T04:14:43.028Z,100541.75
2022-08-26T04:18:08.054Z,100543.91
2022-08-26T04:21:31.083Z,100543.16
2022-08-26T04:24:54.018Z,100540.97
2022-08-26T04:28:17.064Z,100546.72
2022-08-26T04:31:40.095Z,100553.47
2022-08-26T04:35:03.015Z,100555.50
2022-08-26T04:38:29.025Z,100562.59
2022-08-26T04:41:52.037Z,100553.41
2022-08-26T04:45:18.055Z,100555.81
2022-08-26T04:48:47.016Z,100560.97
2022-08-26T04:52:09.053Z,100573.50
2022-08-26T04:55:38.401Z,100588.44
2022-08-26T04:59:03.017Z,100593.56
2022-08-26T05:02:27.079Z,100594.69
2022-08-26T05:05:52.028Z,100599.31
2022-08-26T05:09:15.261Z,100602.56
2022-08-26T05:12:38.104Z,100602.28
2022-08-26T05:16:01.243Z,100605.53
2022-08-26T05:19:25.098Z,100607.72
2022-08-26T05:22:51.076Z,100607.69
2022-08-26T05:26:15.090Z,100611.75
2022-08-26T05:29:40.107Z,100617.97
2022-08-26T05:33:05.114Z,100626.38
2022-08-26T05:36:30.055Z,100632.63
2022-08-26T05:39:54.130Z,100645.34
2022-08-26T05:43:21.042Z,100652.38
2022-08-26T05:46:44.198Z,100655.59
2022-08-26T05:50:08.085Z,100662.38
2022-08-26T05:53:32.047Z,100664.28
2022-08-26T05:56:48.685Z,100674.22
2022-08-26T06:00:06.104Z,100680.72
2022-08-26T06:03:30.077Z,100684.69
2022-08-26T06:06:53.058Z,100680.00
2022-08-26T06:10:31.625Z,100703.19
2022-08-26T06:13:55.828Z,100700.78
2022-08-26T06:17:21.132Z,100720.19
2022-08-26T06:20:57.373Z,100723.75
2022-08-26T06:24:40.122Z,100727.25
2022-08-26T06:28:03.085Z,100740.03
2022-08-26T06:31:27.097Z,100741.97
2022-08-26T06:34:50.097Z,100739.38
2022-08-26T06:38:13.090Z,100743.13
2022-08-26T06:41:39.050Z,100737.97
2022-08-26T06:45:07.047Z,100749.53
2022-08-26T06:48:31.141Z,100753.31
2022-08-26T06:51:54.054Z,100763.00
2022-08-26T06:55:16.095Z,100770.69
2022-08-26T06:58:34.651Z,100781.31
2022-08-26T07:01:55.265Z,100783.38
2022-08-26T07:05:19.082Z,100790.59
2022-08-26T07:08:42.101Z,100789.63
2022-08-26T07:12:05.055Z,100796.72
2022-08-26T07:15:23.851Z,100793.19
2022-08-26T07:18:51.096Z,100799.16
2022-08-26T07:22:17.119Z,100818.91
2022-08-26T07:25:40.106Z,100819.38
2022-08-26T07:29:04.096Z,100821.31
2022-08-26T07:32:28.140Z,100825.47
2022-08-26T07:35:52.140Z,100815.06
2022-08-26T07:39:15.153Z,100821.53
2022-08-26T07:42:33.113Z,100823.31
2022-08-26T07:45:58.138Z,100829.66
2022-08-26T07:49:21.228Z,100832.38
2022-08-26T07:52:46.092Z,100849.56
2022-08-26T07:56:09.153Z,100842.47
2022-08-26T07:59:35.123Z,100835.75
2022-08-26T08:02:58.078Z,100833.94
2022-08-26T08:06:20.135Z,100829.97
2022-08-26T08:09:43.126Z,100822.31
2022-08-26T08:13:06.235Z,100837.06
2022-08-26T08:16:33.451Z,100840.66
2022-08-26T08:19:58.129Z,100844.28
2022-08-26T08:23:23.175Z,100846.44
2022-08-26T08:26:47.180Z,100851.22
2022-08-26T08:30:10.176Z,100847.97
2022-08-26T08:33:40.144Z,100848.47
2022-08-26T08:37:04.367Z,100856.13
2022-08-26T08:40:31.207Z,100862.50
2022-08-26T08:43:56.156Z,100864.91
2022-08-26T08:47:20.751Z,100865.44
2022-08-26T08:50:52.118Z,100865.31
2022-08-26T08:54:15.182Z,100876.81
2022-08-26T08:58:08.015Z,100870.59
2022-08-26T09:01:36.897Z,100876.84
2022-08-26T09:04:57.466Z,100882.13
2022-08-26T09:08:23.096Z,100890.16
2022-08-26T09:11:47.192Z,100896.00
2022-08-26T09:15:22.092Z,100915.50
2022-08-26T09:19:07.185Z,100913.78
2022-08-26T09:22:44.389Z,100924.69
2022-08-26T09:26:10.151Z,100920.94
2022-08-26T09:29:33.148Z,100920.28
2022-08-26T09:32:57.179Z,100924.84
2022-08-26T09:36:46.200Z,100931.75
2022-08-26T09:40:09.184Z,100931.97
2022-08-26T09:43:36.207Z,100940.66
2022-08-26T09:47:01.163Z,100941.88
2022-08-26T09:50:45.171Z,100934.28
2022-08-26T09:54:13.194Z,100946.06
2022-08-26T09:57:45.130Z,100943.59
2022-08-26T10:01:12.270Z,100940.16
2022-08-26T10:04:30.366Z,100936.19
2022-08-26T10:07:49.203Z,100936.72
2022-08-26T10:11:15.137Z,100943.16
2022-08-26T10:18:38.228Z,100952.94
2022-08-26T10:22:13.187Z,100951.13
2022-08-26T10:25:40.185Z,100957.75
2022-08-26T10:29:05.202Z,100956.56
2022-08-26T10:32:32.256Z,100951.75
2022-08-26T10:36:06.147Z,100954.88
2022-08-26T10:39:49.138Z,100952.75
2022-08-26T10:43:18.186Z,100943.16
2022-08-26T10:46:42.223Z,100955.44
2022-08-26T10:50:06.570Z,100945.66
2022-08-26T10:53:32.633Z,100945.00
2022-08-26T10:56:56.155Z,100948.13
2022-08-26T11:00:49.208Z,100954.63
2022-08-26T11:04:13.241Z,100956.31
2022-08-26T11:07:45.240Z,100966.84
2022-08-26T11:11:11.198Z,100949.25
2022-08-26T11:14:45.958Z,100939.41
2022-08-26T11:18:22.150Z,100942.75
2022-08-26T11:22:05.200Z,100940.56
2022-08-26T11:25:30.988Z,100935.25
2022-08-26T11:28:53.188Z,100952.75
2022-08-26T11:32:15.154Z,100962.13
2022-08-26T11:35:37.369Z,100970.88
2022-08-26T11:39:00.164Z,100978.63
2022-08-26T11:42:41.695Z,100984.91
2022-08-26T11:46:18.265Z,100985.88
2022-08-26T11:49:41.807Z,100995.13
2022-08-26T11:53:15.204Z,100988.13
2022-08-26T11:56:43.239Z,100987.94
2022-08-26T12:00:05.803Z,101002.88
2022-08-26T12:03:35.284Z,101002.53
2022-08-26T12:06:54.865Z,101003.53
2022-08-26T12:10:14.262Z,101012.59
2022-08-26T12:13:39.293Z,101011.72
2022-08-26T12:17:04.256Z,101020.63
2022-08-26T12:20:27.216Z,101021.59
2022-08-26T12:23:50.008Z,101028.06
2022-08-26T12:27:22.282Z,101032.06
2022-08-26T12:30:44.178Z,101031.50
2022-08-26T12:34:07.274Z,101033.69
2022-08-26T12:37:40.333Z,101043.53
2022-08-26T12:41:03.231Z,101046.63
2022-08-26T12:44:54.076Z,101042.44
2022-08-26T12:48:27.185Z,101037.28
2022-08-26T12:51:51.236Z,101047.41
2022-08-26T12:55:14.214Z,101055.25
2022-08-26T12:58:39.274Z,101058.09
2022-08-26T13:02:01.358Z,101065.78
2022-08-26T13:05:24.285Z,101065.19
2022-08-26T13:08:46.229Z,101073.16
2022-08-26T13:12:09.211Z,101078.78
2022-08-26T13:15:31.271Z,101075.25
2022-08-26T13:18:54.207Z,101089.00
2022-08-26T13:22:17.279Z,101089.13
2022-08-26T13:25:39.203Z,101088.06
2022-08-26T13:29:02.684Z,101091.09
2022-08-26T13:32:27.460Z,101092.53
2022-08-26T13:35:50.236Z,101100.84
2022-08-26T13:39:12.358Z,101096.28
2022-08-26T13:42:34.411Z,101098.38
2022-08-26T13:45:59.266Z,101101.06
2022-08-26T13:49:21.207Z,101104.59
2022-08-26T13:52:44.288Z,101103.63
2022-08-26T13:56:10.449Z,101105.16
2022-08-26T13:59:33.294Z,101112.22
2022-08-26T14:02:55.234Z,101114.44
2022-08-26T14:06:17.249Z,101110.91
2022-08-26T14:09:40.256Z,101116.69
2022-08-26T14:13:04.261Z,101127.91
2022-08-26T14:16:34.322Z,101125.13
2022-08-26T14:19:57.303Z,101127.09
2022-08-26T14:23:19.257Z,101137.19
2022-08-26T14:26:42.291Z,101140.91
2022-08-26T14:30:04.312Z,101138.94
2022-08-26T14:33:27.273Z,101135.88
2022-08-26T14:36:49.377Z,101132.94
2022-08-26T14:40:13.331Z,101133.03
2022-08-26T14:43:35.316Z,101145.69
2022-08-26T14:47:00.310Z,101143.25
2022-08-26T14:50:22.322Z,101152.03
2022-08-26T14:54:02.278Z,101149.47
2022-08-26T14:57:25.309Z,101140.03
2022-08-26T15:00:47.235Z,101152.00
2022-08-26T15:04:10.275Z,101152.84
2022-08-26T15:07:32.287Z,101156.72
2022-08-26T15:10:54.319Z,101145.09
2022-08-26T15:14:19.764Z,101153.56
2022-08-26T15:17:43.237Z,101155.34
2022-08-26T15:21:08.267Z,101158.38
2022-08-26T15:24:33.269Z,101154.84
2022-08-26T15:27:55.281Z,101161.31
2022-08-26T15:31:17.297Z,101155.91
2022-08-26T15:34:40.331Z,101161.09
2022-08-26T15:38:02.266Z,101158.25
2022-08-26T15:41:25.346Z,101159.91
2022-08-26T15:44:47.247Z,101166.13
2022-08-26T15:48:12.533Z,101171.88
2022-08-26T15:51:45.646Z,101180.66
2022-08-26T15:55:08.342Z,101174.44
2022-08-26T15:58:30.264Z,101179.59
2022-08-26T16:01:52.417Z,101191.22
2022-08-26T16:05:14.299Z,101187.25
2022-08-26T16:08:37.305Z,101199.31
2022-08-26T16:12:00.331Z,101198.34
2022-08-26T16:15:25.287Z,101203.75
2022-08-26T16:18:47.290Z,101200.47
2022-08-26T16:22:09.323Z,101207.38
2022-08-26T16:25:32.351Z,101206.09
2022-08-26T16:28:54.328Z,101205.63
2022-08-26T16:32:17.331Z,101210.78
2022-08-26T16:35:40.325Z,101208.88
2022-08-26T16:39:04.269Z,101219.94
2022-08-26T16:42:26.384Z,101224.13
2022-08-26T16:45:48.272Z,101234.78
2022-08-26T16:49:14.317Z,101237.13
2022-08-26T16:52:36.289Z,101236.78
2022-08-26T16:56:03.367Z,101245.22
2022-08-26T16:59:26.336Z,101248.53
2022-08-26T17:02:48.401Z,101257.28
2022-08-26T17:06:11.394Z,101256.25
2022-08-26T17:09:33.323Z,101264.56
2022-08-26T17:12:57.374Z,101266.06
2022-08-26T17:16:25.874Z,101276.75
2022-08-26T17:19:50.377Z,101278.63
2022-08-26T17:23:14.350Z,101284.38
2022-08-26T17:26:55.676Z,101284.00
2022-08-26T17:30:20.325Z,101293.16
2022-08-26T17:33:45.057Z,101297.03
2022-08-26T17:37:09.337Z,101303.84
2022-08-26T17:40:35.411Z,101312.16
2022-08-26T17:43:59.336Z,101310.75
2022-08-26T17:47:21.373Z,101319.75
2022-08-26T17:50:49.472Z,101324.56
2022-08-26T17:54:14.331Z,101328.78
2022-08-26T17:57:40.841Z,101334.13
2022-08-26T18:01:06.488Z,101334.72
2022-08-26T18:04:29.414Z,101339.81
2022-08-26T18:07:53.355Z,101342.94
2022-08-26T18:11:16.408Z,101352.47
2022-08-26T18:14:40.298Z,101351.03
2022-08-26T18:18:03.396Z,101355.22
2022-08-26T18:21:28.380Z,101363.72
2022-08-26T18:24:55.462Z,101370.13
2022-08-26T18:28:23.354Z,101373.44
2022-08-26T18:31:46.335Z,101379.63
2022-08-26T18:35:09.382Z,101382.88
2022-08-26T18:38:31.327Z,101386.09
2022-08-26T18:41:58.340Z,101394.72
2022-08-26T18:45:22.367Z,101399.16
2022-08-26T18:48:39.383Z,101404.66
2022-08-26T18:52:03.329Z,101403.13
2022-08-26T18:55:26.388Z,101412.47
2022-08-26T18:58:49.368Z,101419.41
2022-08-26T19:02:12.499Z,101433.53
2022-08-26T19:05:35.323Z,101426.00
2022-08-26T19:08:59.351Z,101433.44
2022-08-26T19:12:16.992Z,101441.75
2022-08-26T19:15:34.425Z,101450.38
2022-08-26T19:18:58.380Z,101454.03
2022-08-26T19:22:21.362Z,101453.47
2022-08-26T19:25:44.358Z,101473.44
2022-08-26T19:29:07.441Z,101471.03
2022-08-26T19:32:32.340Z,101479.44
2022-08-26T19:35:55.422Z,101472.88
2022-08-26T19:39:19.383Z,101480.63
2022-08-26T19:42:43.374Z,101487.41
2022-08-26T19:46:06.473Z,101492.94
2022-08-26T19:49:29.359Z,101501.03
2022-08-26T19:52:53.388Z,101508.88
2022-08-26T19:56:16.406Z,101513.13
2022-08-26T19:59:41.407Z,101524.44
2022-08-26T20:03:04.470Z,101523.31
2022-08-26T20:06:28.385Z,101524.91
2022-08-26T20:09:51.385Z,101527.31
2022-08-26T20:13:08.661Z,101532.19
2022-08-26T20:16:26.524Z,101542.31
2022-08-26T20:20:29.702Z,101532.50
2022-08-26T20:23:51.393Z,101546.16
2022-08-26T20:27:14.412Z,101556.47
2022-08-26T20:30:38.432Z,101558.97
2022-08-26T20:34:01.403Z,101566.50
2022-08-26T20:37:24.431Z,101571.38
2022-08-26T20:40:47.369Z,101574.94
2022-08-26T20:44:10.428Z,101571.72
2022-08-26T20:47:33.446Z,101584.31
2022-08-26T20:50:56.411Z,101587.88
2022-08-26T20:54:25.002Z,101577.31
2022-08-26T20:57:51.358Z,101582.03
2022-08-26T21:01:14.478Z,101576.00
2022-08-26T21:04:38.432Z,101590.47
2022-08-26T21:08:02.519Z,101585.44
2022-08-26T21:11:26.383Z,101587.53
2022-08-26T21:14:49.785Z,101593.31
2022-08-26T21:18:13.414Z,101603.63
2022-08-26T21:21:36.411Z,101606.75
2022-08-26T21:25:00.366Z,101605.16
2022-08-26T21:28:23.421Z,101615.97
2022-08-26T21:31:47.429Z,101613.47
2022-08-26T21:35:11.417Z,101618.88
2022-08-26T21:38:35.450Z,101625.84
2022-08-26T21:41:58.432Z,101623.78
2022-08-26T21:45:22.523Z,101627.00
2022-08-26T21:48:48.822Z,101626.47
2022-08-26T21:52:14.437Z,101624.34
2022-08-26T21:55:37.430Z,101624.53
2022-08-26T21:59:02.445Z,101617.06
2022-08-26T22:02:26.498Z,101627.53
2022-08-26T22:05:49.452Z,101624.63
2022-08-26T22:09:12.424Z,101629.31
2022-08-26T22:12:35.473Z,101633.81
2022-08-26T22:15:58.426Z,101631.94
2022-08-26T22:19:23.515Z,101626.31
2022-08-26T22:22:46.404Z,101628.41
2022-08-26T22:26:09.452Z,101624.91
2022-08-26T22:29:33.404Z,101626.84
2022-08-26T22:32:57.483Z,101622.13
2022-08-26T22:36:20.398Z,101636.41
2022-08-26T22:39:43.492Z,101639.53
2022-08-26T22:43:07.401Z,101640.19
2022-08-26T22:46:33.452Z,101636.78
2022-08-26T22:49:56.445Z,101645.75
2022-08-26T22:53:18.451Z,101638.91
2022-08-26T22:56:41.453Z,101643.03
2022-08-26T23:00:04.497Z,101644.28
2022-08-26T23:03:27.473Z,101644.66
2022-08-26T23:06:52.492Z,101648.44
2022-08-26T23:10:15.479Z,101639.09
2022-08-26T23:13:39.469Z,101640.06
2022-08-26T23:17:03.536Z,101645.75
2022-08-26T23:20:26.456Z,101640.19
2022-08-26T23:23:49.441Z,101642.75
2022-08-26T23:27:13.508Z,101643.34
2022-08-26T23:30:39.514Z,101647.94
2022-08-26T23:34:20.496Z,101653.31
2022-08-26T23:37:49.516Z,101650.53
2022-08-26T23:41:12.428Z,101659.53
2022-08-26T23:44:36.510Z,101650.34
2022-08-26T23:47:59.480Z,101659.91
2022-08-26T23:51:42.468Z,101649.25
2022-08-26T23:55:10.471Z,101656.56
2022-08-26T23:58:33.515Z,101650.19
